Time;durP1;ratioP1;P1;durP2;ratioP2;P2;SDS_P1;SDS_P2;PMS_P1;PMS_P2;Temp;Humidity;BMP_temperature;BMP_pressure;BME280_temperature;BME280_humidity;BME280_pressure;Samples;Min_cycle;Max_cycle;Signal;HPM_P1;HPM_P2
2022/10/22 00:02:21;;;;;;;0.00;0.00;;;13.90;99.90;;;;;;5115156;28;20040;-82
2022/10/22 00:04:48;;;;;;;0.22;0.00;;;13.90;99.90;;;;;;5098057;28;20055;-83
2022/10/22 00:07:14;;;;;;;0.00;0.00;;;14.00;99.90;;;;;;5115122;28;20035;-82
2022/10/22 00:09:40;;;;;;;2.92;0.30;;;13.90;99.90;;;;;;5114995;28;20040;-82
2022/10/22 00:12:06;;;;;;;0.00;0.00;;;13.90;99.90;;;;;;5097785;28;20047;-82
2022/10/22 00:14:31;;;;;;;0.00;0.00;;;13.90;99.90;;;;;;5114902;28;20066;-82
2022/10/22 00:16:59;;;;;;;0.00;0.00;;;13.90;99.90;;;;;;5115443;28;20130;-82
2022/10/22 00:19:28;;;;;;;0.00;0.00;;;13.90;99.90;;;;;;5115069;28;20047;-82
2022/10/22 00:21:54;;;;;;;0.10;0.00;;;13.80;99.90;;;;;;5114782;28;20047;-82
2022/10/22 00:24:20;;;;;;;0.00;0.00;;;13.80;99.90;;;;;;5097798;28;20053;-82
2022/10/22 00:26:46;;;;;;;0.00;0.00;;;13.80;99.90;;;;;;5097572;28;20419;-82
2022/10/22 00:29:12;;;;;;;0.00;0.00;;;13.80;99.90;;;;;;5098045;28;20052;-82
2022/10/22 00:31:37;;;;;;;0.00;0.00;;;13.80;99.90;;;;;;5097427;28;20048;-82
2022/10/22 00:34:04;;;;;;;0.00;0.00;;;13.80;99.90;;;;;;5098028;28;20062;-82
2022/10/22 00:36:30;;;;;;;0.00;0.00;;;13.70;99.90;;;;;;5097623;28;20074;-82
2022/10/22 00:38:55;;;;;;;0.00;0.00;;;13.70;99.90;;;;;;5097051;28;20453;-82
2022/10/22 00:41:21;;;;;;;0.00;0.00;;;13.70;99.90;;;;;;5097459;28;20079;-82
2022/10/22 00:44:01;;;;;;;0.00;0.00;;;13.70;99.90;;;;;;5097786;28;20058;-82
2022/10/22 00:46:29;;;;;;;0.00;0.00;;;13.70;99.90;;;;;;5114335;28;20039;-82
2022/10/22 00:48:57;;;;;;;0.60;0.10;;;13.80;99.90;;;;;;5114256;28;20044;-82
2022/10/22 00:51:27;;;;;;;0.00;0.00;;;13.60;99.90;;;;;;5114007;28;20079;-82
2022/10/22 00:54:01;;;;;;;0.38;0.25;;;13.70;99.90;;;;;;5096969;28;20044;-82
2022/10/22 00:56:27;;;;;;;0.20;0.20;;;13.60;99.90;;;;;;5097439;28;20048;-82
2022/10/22 00:58:56;;;;;;;0.00;0.00;;;13.60;99.90;;;;;;5114074;28;20097;-82
2022/10/22 01:01:28;;;;;;;0.00;0.00;;;13.70;99.90;;;;;;5097248;28;20047;-82
2022/10/22 01:03:54;;;;;;;0.00;0.00;;;13.60;99.90;;;;;;5097276;28;20142;-82
2022/10/22 01:06:29;;;;;;;0.28;0.25;;;13.60;99.90;;;;;;5113890;28;20100;-82
2022/10/22 01:09:13;;;;;;;0.00;0.00;;;13.60;99.90;;;;;;5113022;28;20113;-82
2022/10/22 01:12:05;;;;;;;0.03;0.03;;;13.60;99.90;;;;;;5113625;28;20477;-82
2022/10/22 01:14:58;;;;;;;0.00;0.00;;;13.60;99.90;;;;;;5113842;28;20126;-82
2022/10/22 01:17:33;;;;;;;0.00;0.00;;;13.60;99.90;;;;;;5097044;28;20451;-82
2022/10/22 01:20:31;;;;;;;0.25;0.15;;;13.60;99.90;;;;;;5097323;28;20056;-82
2022/10/22 01:23:33;;;;;;;0.00;0.00;;;13.60;99.90;;;;;;5112974;28;20059;-81
2022/10/22 01:26:27;;;;;;;0.00;0.00;;;13.60;99.90;;;;;;5055633;28;20060;-82
2022/10/22 01:29:34;;;;;;;0.00;0.00;;;13.60;99.90;;;;;;5055043;28;20522;-82
2022/10/22 01:32:21;;;;;;;0.00;0.00;;;13.60;99.90;;;;;;4995208;28;20053;-82
2022/10/22 01:34:52;;;;;;;0.00;0.00;;;13.40;99.90;;;;;;4996161;28;20525;-82
2022/10/22 01:37:21;;;;;;;0.00;0.00;;;13.50;99.90;;;;;;4996026;28;20065;-82
2022/10/22 01:39:49;;;;;;;4.03;0.00;;;13.50;99.90;;;;;;4995667;28;20405;-82
2022/10/22 01:42:15;;;;;;;0.00;0.00;;;13.40;99.90;;;;;;4995972;28;20110;-82
2022/10/22 01:44:41;;;;;;;0.00;0.00;;;13.30;99.90;;;;;;4979724;28;20053;-82
2022/10/22 01:47:28;;;;;;;0.00;0.00;;;13.40;99.90;;;;;;4996198;28;20050;-82
2022/10/22 01:50:02;;;;;;;0.00;0.00;;;13.40;99.90;;;;;;4995644;28;20054;-81
2022/10/22 01:52:39;;;;;;;;;;;13.40;99.90;;;;;;4996681;28;20142;-82
2022/10/22 01:55:24;;;;;;;0.00;0.00;;;13.40;99.90;;;;;;4979551;28;19928;-82
2022/10/22 01:57:59;;;;;;;;;;;13.40;99.90;;;;;;4979613;28;20054;-82
2022/10/22 02:00:25;;;;;;;0.00;0.00;;;13.40;99.90;;;;;;4995710;28;19921;-82
2022/10/22 02:03:03;;;;;;;0.00;0.00;;;13.40;99.90;;;;;;5025957;28;20056;-82
2022/10/22 02:05:43;;;;;;;0.00;0.00;;;13.40;99.90;;;;;;5054968;28;20049;-82
2022/10/22 02:08:11;;;;;;;0.00;0.00;;;13.40;99.90;;;;;;5066257;28;20091;-82
2022/10/22 02:10:40;;;;;;;0.00;0.00;;;13.30;99.90;;;;;;5113151;28;20043;-82
2022/10/22 02:13:11;;;;;;;0.00;0.00;;;13.40;99.90;;;;;;5096075;28;20048;-82
2022/10/22 02:15:38;;;;;;;0.00;0.00;;;13.40;99.90;;;;;;5095400;28;20051;-82
2022/10/22 02:18:07;;;;;;;0.00;0.00;;;13.30;99.90;;;;;;5113062;28;20047;-82
2022/10/22 02:20:35;;;;;;;0.00;0.00;;;13.30;99.90;;;;;;5116312;28;20051;-82
2022/10/22 02:23:02;;;;;;;0.00;0.00;;;13.30;99.90;;;;;;5117174;28;20083;-82
2022/10/22 02:25:37;;;;;;;0.00;0.00;;;13.20;99.90;;;;;;5099959;28;20053;-82
2022/10/22 02:28:14;;;;;;;0.00;0.00;;;13.20;99.90;;;;;;5099993;28;20126;-82
2022/10/22 02:30:43;;;;;;;0.10;0.10;;;13.20;99.90;;;;;;5116874;28;20126;-82
2022/10/22 02:33:23;;;;;;;0.00;0.00;;;13.20;99.90;;;;;;5099994;28;20066;-82
2022/10/22 02:35:50;;;;;;;0.00;0.00;;;13.20;99.90;;;;;;5099431;28;20087;-82
2022/10/22 02:38:18;;;;;;;0.75;0.00;;;13.20;99.90;;;;;;5099929;28;20086;-82
2022/10/22 02:40:44;;;;;;;2.72;0.63;;;13.10;99.90;;;;;;5117244;28;20051;-82
2022/10/22 02:43:09;;;;;;;0.00;0.00;;;13.20;99.90;;;;;;5100139;28;20116;-82
2022/10/22 02:45:36;;;;;;;0.10;0.10;;;13.20;99.90;;;;;;5116981;28;20479;-82
2022/10/22 02:48:02;;;;;;;0.00;0.00;;;13.20;99.90;;;;;;5116664;28;20043;-82
2022/10/22 02:50:28;;;;;;;0.00;0.00;;;13.20;99.90;;;;;;5117273;28;20344;-82
2022/10/22 02:52:53;;;;;;;0.00;0.00;;;13.10;99.90;;;;;;5099273;28;20121;-81
2022/10/22 02:55:19;;;;;;;0.00;0.00;;;13.10;99.90;;;;;;5116719;28;20043;-81
2022/10/22 02:57:45;;;;;;;0.00;0.00;;;13.10;99.90;;;;;;5099563;28;20055;-81
2022/10/22 03:00:11;;;;;;;0.00;0.00;;;13.10;99.90;;;;;;5099325;28;20161;-81
2022/10/22 03:02:36;;;;;;;0.00;0.00;;;13.10;99.90;;;;;;5116374;28;20036;-81
2022/10/22 03:05:03;;;;;;;0.28;0.00;;;13.10;99.90;;;;;;5116230;28;20047;-81
2022/10/22 03:07:29;;;;;;;0.00;0.00;;;13.10;99.90;;;;;;5116344;28;20050;-81
2022/10/22 03:09:55;;;;;;;0.10;0.10;;;13.00;99.90;;;;;;5099384;28;20039;-81
2022/10/22 03:12:20;;;;;;;0.00;0.00;;;13.10;99.90;;;;;;5098931;28;20062;-81
2022/10/22 03:14:46;;;;;;;0.00;0.00;;;13.10;99.90;;;;;;5116406;28;20035;-81
2022/10/22 03:17:11;;;;;;;0.00;0.00;;;13.00;99.90;;;;;;5116111;28;20051;-81
2022/10/22 03:19:37;;;;;;;0.00;0.00;;;13.00;99.90;;;;;;5115353;28;20090;-81
2022/10/22 03:22:14;;;;;;;0.00;0.00;;;13.00;99.90;;;;;;5115945;28;20039;-81
2022/10/22 03:24:46;;;;;;;0.00;0.00;;;13.10;99.90;;;;;;5099335;28;20062;-80
2022/10/22 03:27:15;;;;;;;0.00;0.00;;;13.00;99.90;;;;;;5099037;28;20461;-80
2022/10/22 03:29:42;;;;;;;0.10;0.00;;;13.00;99.90;;;;;;5115762;28;20051;-80
2022/10/22 03:32:08;;;;;;;0.00;0.00;;;13.00;99.90;;;;;;5097291;28;20059;-81
2022/10/22 03:34:33;;;;;;;0.00;0.00;;;13.00;99.90;;;;;;5098970;28;20044;-81
2022/10/22 03:37:00;;;;;;;0.00;0.00;;;13.10;99.90;;;;;;5116240;28;20055;-80
2022/10/22 03:39:28;;;;;;;0.00;0.00;;;13.00;99.90;;;;;;5115734;28;20058;-80
2022/10/22 03:41:55;;;;;;;0.40;0.25;;;13.10;99.90;;;;;;5115728;28;20521;-81
2022/10/22 03:44:21;;;;;;;3.30;0.45;;;13.00;99.90;;;;;;5097933;28;20047;-80
2022/10/22 03:46:47;;;;;;;0.00;0.00;;;13.00;99.90;;;;;;5114683;28;20443;-81
2022/10/22 03:49:13;;;;;;;0.00;0.00;;;13.00;99.90;;;;;;5115716;28;20039;-81
2022/10/22 03:51:39;;;;;;;0.00;0.00;;;13.00;99.90;;;;;;5115207;28;20044;-80
2022/10/22 03:54:05;;;;;;;0.03;0.03;;;13.00;99.90;;;;;;5115410;28;20044;-81
2022/10/22 03:56:31;;;;;;;0.00;0.00;;;13.00;99.90;;;;;;5115374;28;20050;-81
2022/10/22 03:58:58;;;;;;;0.03;0.03;;;13.00;99.90;;;;;;5098355;28;20039;-81
2022/10/22 04:01:25;;;;;;;0.00;0.00;;;13.10;99.90;;;;;;5115237;28;20051;-81
2022/10/22 04:03:50;;;;;;;0.00;0.00;;;13.10;99.90;;;;;;5115185;28;20043;-81
2022/10/22 04:06:16;;;;;;;0.00;0.00;;;13.10;99.90;;;;;;5098329;28;20054;-81
2022/10/22 04:08:43;;;;;;;0.00;0.00;;;13.10;99.90;;;;;;5097972;28;20067;-81
2022/10/22 04:11:09;;;;;;;0.00;0.00;;;13.20;99.90;;;;;;5097857;28;20035;-81
2022/10/22 04:13:35;;;;;;;0.15;0.10;;;13.10;99.90;;;;;;5097966;28;20048;-81
2022/10/22 04:16:11;;;;;;;0.00;0.00;;;13.10;99.90;;;;;;5114870;28;20070;-81
2022/10/22 04:18:38;;;;;;;0.00;0.00;;;13.10;99.90;;;;;;5098592;28;20100;-81
2022/10/22 04:21:04;;;;;;;0.00;0.00;;;13.20;99.90;;;;;;5097878;28;20043;-81
2022/10/22 04:23:30;;;;;;;0.00;0.00;;;13.00;99.90;;;;;;5115081;28;20043;-81
2022/10/22 04:26:00;;;;;;;0.00;0.00;;;13.00;99.90;;;;;;5097567;28;20055;-81
2022/10/22 04:28:26;;;;;;;0.00;0.00;;;13.00;99.90;;;;;;5114363;28;20079;-81
2022/10/22 04:30:52;;;;;;;0.00;0.00;;;12.90;99.90;;;;;;5097996;28;20101;-81
2022/10/22 04:33:18;;;;;;;0.00;0.00;;;12.90;99.90;;;;;;5114032;28;20423;-81
2022/10/22 04:35:43;;;;;;;0.28;0.00;;;12.80;99.90;;;;;;5097343;28;20381;-81
2022/10/22 04:38:09;;;;;;;0.00;0.00;;;12.90;99.90;;;;;;5114548;28;20043;-81
2022/10/22 04:40:35;;;;;;;0.10;0.10;;;12.80;99.90;;;;;;5114491;28;20432;-81
2022/10/22 04:43:00;;;;;;;0.30;0.15;;;12.80;99.90;;;;;;5097072;28;20055;-81
2022/10/22 04:45:26;;;;;;;0.60;0.17;;;12.80;99.90;;;;;;5114622;28;20039;-81
2022/10/22 04:47:52;;;;;;;0.00;0.00;;;12.80;99.90;;;;;;5097264;28;20132;-81
2022/10/22 04:50:17;;;;;;;0.70;0.47;;;12.80;99.90;;;;;;5114178;28;20039;-81
2022/10/22 04:52:43;;;;;;;0.10;0.10;;;12.80;99.90;;;;;;5114200;28;20039;-81
2022/10/22 04:55:09;;;;;;;2.28;0.40;;;12.90;99.90;;;;;;5114108;28;20074;-81
2022/10/22 04:57:35;;;;;;;0.00;0.00;;;12.90;99.90;;;;;;5114057;28;20138;-81
2022/10/22 05:00:00;;;;;;;0.00;0.00;;;12.80;99.90;;;;;;5096907;28;20144;-81
2022/10/22 05:02:26;;;;;;;0.00;0.00;;;12.90;99.90;;;;;;5097042;28;20134;-81
2022/10/22 05:04:52;;;;;;;0.52;0.52;;;12.90;99.90;;;;;;5114340;28;20051;-81
2022/10/22 05:07:18;;;;;;;0.00;0.00;;;12.90;99.90;;;;;;5114230;28;20043;-81
2022/10/22 05:09:43;;;;;;;0.00;0.00;;;12.90;99.90;;;;;;5096965;28;20242;-81
2022/10/22 05:12:09;;;;;;;0.00;0.00;;;12.90;99.90;;;;;;5096480;28;20096;-81
2022/10/22 05:14:34;;;;;;;0.00;0.00;;;12.90;99.90;;;;;;5097592;28;20051;-81
2022/10/22 05:17:00;;;;;;;0.60;0.17;;;12.90;99.90;;;;;;5096745;28;20040;-81
2022/10/22 05:19:31;;;;;;;0.00;0.00;;;13.00;99.90;;;;;;5096805;28;20467;-81
2022/10/22 05:21:59;;;;;;;0.00;0.00;;;12.90;99.90;;;;;;5114028;28;20479;-81
2022/10/22 05:24:26;;;;;;;0.00;0.00;;;13.00;99.90;;;;;;5096685;28;20180;-81
2022/10/22 05:26:53;;;;;;;0.00;0.00;;;13.00;99.90;;;;;;5112828;28;20064;-80
2022/10/22 05:29:19;;;;;;;1.85;0.00;;;13.00;99.90;;;;;;5112874;28;20193;-81
2022/10/22 05:31:45;;;;;;;0.00;0.00;;;13.00;99.90;;;;;;5114922;27;20035;-81
2022/10/22 05:34:12;;;;;;;7.18;0.47;;;13.10;99.90;;;;;;5119145;27;20103;-80
2022/10/22 05:36:38;;;;;;;0.00;0.00;;;13.20;99.90;;;;;;5095990;28;20055;-81
2022/10/22 05:39:04;;;;;;;0.10;0.10;;;13.20;99.90;;;;;;5113229;28;20043;-81
2022/10/22 05:41:31;;;;;;;0.00;0.00;;;13.20;99.90;;;;;;5113437;28;20560;-80
2022/10/22 05:43:59;;;;;;;0.00;0.00;;;13.30;99.90;;;;;;5113326;28;20487;-80
2022/10/22 05:46:27;;;;;;;0.00;0.00;;;13.20;99.90;;;;;;5113114;28;20043;-80
2022/10/22 05:49:01;;;;;;;0.00;0.00;;;13.30;99.90;;;;;;5113336;28;20093;-80
2022/10/22 05:51:29;;;;;;;0.30;0.10;;;13.40;99.90;;;;;;5096290;28;20421;-81
2022/10/22 05:53:59;;;;;;;0.40;0.00;;;13.40;99.90;;;;;;5112779;28;20082;-81
2022/10/22 05:56:26;;;;;;;0.30;0.20;;;13.40;99.90;;;;;;5096579;28;20043;-80
2022/10/22 05:58:52;;;;;;;0.00;0.00;;;13.40;99.90;;;;;;5096285;28;20088;-82
2022/10/22 06:01:23;;;;;;;0.25;0.25;;;13.40;99.90;;;;;;5096232;28;20043;-81
2022/10/22 06:03:53;;;;;;;0.85;0.35;;;13.50;99.90;;;;;;5113093;28;20055;-81
2022/10/22 06:06:29;;;;;;;0.22;0.05;;;13.40;99.90;;;;;;5096053;28;20082;-81
2022/10/22 06:08:58;;;;;;;0.00;0.00;;;13.40;99.90;;;;;;5113792;28;20043;-81
2022/10/22 06:11:24;;;;;;;0.10;0.10;;;13.40;99.90;;;;;;5113124;28;20044;-80
2022/10/22 06:13:50;;;;;;;3.30;0.45;;;13.40;99.90;;;;;;5096264;28;20564;-81
2022/10/22 06:16:16;;;;;;;0.30;0.30;;;13.40;99.90;;;;;;5096182;28;20048;-80
2022/10/22 06:18:42;;;;;;;0.10;0.10;;;13.40;99.90;;;;;;5113124;28;20383;-80
2022/10/22 06:21:09;;;;;;;0.55;0.22;;;13.30;99.90;;;;;;5113287;28;20044;-80
2022/10/22 06:23:36;;;;;;;0.43;0.30;;;13.40;99.90;;;;;;5112241;28;20480;-81
2022/10/22 06:26:03;;;;;;;0.40;0.25;;;13.40;99.90;;;;;;5075523;28;20094;-80
2022/10/22 06:28:28;;;;;;;0.03;0.00;;;13.40;99.90;;;;;;5075805;28;20373;-80
2022/10/22 06:31:00;;;;;;;0.00;0.00;;;13.40;99.90;;;;;;5075625;28;20119;-80
2022/10/22 06:33:27;;;;;;;0.30;0.30;;;13.30;99.90;;;;;;5075349;28;20067;-80
2022/10/22 06:35:53;;;;;;;0.03;0.03;;;13.40;99.90;;;;;;5076547;28;20048;-80
2022/10/22 06:38:19;;;;;;;0.00;0.00;;;13.50;99.90;;;;;;5075311;28;20047;-80
2022/10/22 06:40:44;;;;;;;0.82;0.40;;;13.40;99.90;;;;;;5092553;28;20098;-80
2022/10/22 06:43:14;;;;;;;0.90;0.35;;;13.40;99.90;;;;;;5092470;28;20044;-80
2022/10/22 06:45:40;;;;;;;0.00;0.00;;;13.50;99.90;;;;;;5092310;28;20056;-80
2022/10/22 06:48:06;;;;;;;0.80;0.03;;;13.50;99.90;;;;;;5075587;28;20377;-80
2022/10/22 06:50:34;;;;;;;0.00;0.00;;;13.50;99.90;;;;;;5092350;28;20088;-80
2022/10/22 06:52:59;;;;;;;0.00;0.00;;;13.50;99.90;;;;;;5092603;28;20044;-80
2022/10/22 06:55:25;;;;;;;0.00;0.00;;;13.60;99.90;;;;;;5092501;28;20048;-81
2022/10/22 06:57:50;;;;;;;0.00;0.00;;;13.50;99.90;;;;;;5075441;28;20066;-80
2022/10/22 07:00:16;;;;;;;1.00;0.52;;;13.60;99.90;;;;;;5075424;28;20083;-81
2022/10/22 07:02:42;;;;;;;0.10;0.10;;;13.60;99.90;;;;;;5075600;28;20130;-81
2022/10/22 07:05:08;;;;;;;0.00;0.00;;;13.70;99.90;;;;;;5092303;28;20502;-81
2022/10/22 07:07:33;;;;;;;0.10;0.10;;;13.60;99.90;;;;;;5095278;28;20044;-80
2022/10/22 07:09:59;;;;;;;0.20;0.20;;;13.70;99.90;;;;;;5078586;28;20059;-81
2022/10/22 07:12:25;;;;;;;0.00;0.00;;;13.70;99.90;;;;;;5078628;28;20089;-80
2022/10/22 07:14:50;;;;;;;0.20;0.20;;;13.80;99.90;;;;;;5095702;28;20047;-80
2022/10/22 07:17:16;;;;;;;1.35;0.20;;;13.70;99.90;;;;;;5095452;28;20082;-80
2022/10/22 07:19:42;;;;;;;0.00;0.00;;;13.70;99.90;;;;;;5078846;28;20039;-80
2022/10/22 07:22:08;;;;;;;0.60;0.00;;;13.80;99.90;;;;;;5095668;28;20052;-80
2022/10/22 07:24:33;;;;;;;1.23;0.20;;;13.90;99.90;;;;;;5095578;28;20051;-80
2022/10/22 07:26:59;;;;;;;0.40;0.20;;;13.90;99.90;;;;;;5078895;28;20055;-80
2022/10/22 07:29:25;;;;;;;0.00;0.00;;;14.00;99.90;;;;;;5078713;28;20514;-80
2022/10/22 07:31:50;;;;;;;0.03;0.03;;;14.00;99.90;;;;;;5078131;28;20074;-80
2022/10/22 07:34:16;;;;;;;0.00;0.00;;;14.10;99.90;;;;;;5095205;28;20090;-80
2022/10/22 07:36:42;;;;;;;0.00;0.00;;;14.20;99.90;;;;;;5095455;28;20059;-80
2022/10/22 07:39:07;;;;;;;1.65;0.65;;;14.30;99.90;;;;;;5078213;28;20056;-80
2022/10/22 07:41:33;;;;;;;0.10;0.10;;;14.30;99.90;;;;;;5078479;28;20353;-80
2022/10/22 07:43:58;;;;;;;0.15;0.15;;;14.40;99.90;;;;;;5078254;28;20082;-80
2022/10/22 07:46:25;;;;;;;0.40;0.20;;;14.40;99.90;;;;;;5078084;28;20147;-80
2022/10/22 07:48:51;;;;;;;0.10;0.10;;;14.40;99.90;;;;;;5078220;28;20139;-80
2022/10/22 07:51:17;;;;;;;0.20;0.10;;;14.50;99.90;;;;;;5094892;28;20617;-80
2022/10/22 07:53:43;;;;;;;0.00;0.00;;;14.30;99.90;;;;;;5078092;28;20134;-80
2022/10/22 07:56:08;;;;;;;0.08;0.08;;;14.40;99.90;;;;;;5078129;28;20047;-80
2022/10/22 07:58:34;;;;;;;1.45;0.08;;;14.30;99.90;;;;;;5094559;28;20044;-80
2022/10/22 08:01:04;;;;;;;2.75;0.10;;;14.40;99.90;;;;;;5077633;28;20056;-80
2022/10/22 08:03:30;;;;;;;0.00;0.00;;;14.30;99.90;;;;;;5077888;28;20503;-80
2022/10/22 08:05:55;;;;;;;1.25;0.63;;;14.30;99.90;;;;;;5077518;28;20082;-80
2022/10/22 08:08:21;;;;;;;0.00;0.00;;;14.30;99.90;;;;;;5077644;28;20040;-80
2022/10/22 08:10:49;;;;;;;0.00;0.00;;;14.30;99.90;;;;;;5077699;28;20470;-80
2022/10/22 08:13:15;;;;;;;0.52;0.08;;;14.30;99.90;;;;;;5094408;28;20131;-80
2022/10/22 08:15:42;;;;;;;4.45;0.10;;;14.30;99.90;;;;;;5094678;28;20055;-79
2022/10/22 08:18:08;;;;;;;0.00;0.00;;;14.20;99.90;;;;;;5094108;28;20044;-80
2022/10/22 08:20:34;;;;;;;0.20;0.20;;;14.30;99.90;;;;;;5077586;28;20063;-80
2022/10/22 08:22:59;;;;;;;0.08;0.00;;;14.30;99.90;;;;;;5094019;28;20040;-80
2022/10/22 08:25:26;;;;;;;0.32;0.22;;;14.30;99.90;;;;;;5094433;28;20495;-80
2022/10/22 08:27:52;;;;;;;0.20;0.20;;;14.40;99.90;;;;;;5094175;28;20086;-80
2022/10/22 08:30:18;;;;;;;0.00;0.00;;;14.40;99.90;;;;;;5094059;28;20082;-80
2022/10/22 08:32:44;;;;;;;0.20;0.10;;;14.50;99.90;;;;;;5077493;28;20044;-79
2022/10/22 08:35:10;;;;;;;0.03;0.03;;;14.80;99.90;;;;;;5076795;28;20198;-80
2022/10/22 08:37:35;;;;;;;0.45;0.20;;;15.60;99.90;;;;;;5093995;28;20172;-80
2022/10/22 08:40:02;;;;;;;0.00;0.00;;;16.80;99.90;;;;;;5077188;28;20056;-80
2022/10/22 08:42:58;;;;;;;1.35;0.00;;;17.50;99.90;;;;;;5094033;28;20127;-80
2022/10/22 08:45:31;;;;;;;2.35;0.52;;;18.20;99.90;;;;;;5077493;28;20055;-80
2022/10/22 08:48:00;;;;;;;0.22;0.00;;;18.40;99.90;;;;;;5077041;28;20047;-80
2022/10/22 08:50:37;;;;;;;0.00;0.00;;;18.70;99.90;;;;;;5093651;28;20139;-81
2022/10/22 08:53:11;;;;;;;0.00;0.00;;;19.10;99.90;;;;;;5076931;28;20128;-81
2022/10/22 08:55:37;;;;;;;0.00;0.00;;;19.20;99.90;;;;;;5093724;28;20127;-80
2022/10/22 08:58:30;;;;;;;5.10;0.68;;;19.20;99.90;;;;;;5076856;28;20044;-80
2022/10/22 09:01:10;;;;;;;1.55;0.50;;;19.10;99.90;;;;;;5076873;28;20044;-80
2022/10/22 09:03:42;;;;;;;0.00;0.00;;;19.10;99.90;;;;;;5076936;28;20056;-82
2022/10/22 09:06:15;;;;;;;0.00;0.00;;;19.10;99.90;;;;;;5093594;28;20052;-80
2022/10/22 09:08:42;;;;;;;0.22;0.10;;;19.00;99.90;;;;;;5093751;28;20044;-80
2022/10/22 09:11:31;;;;;;;0.00;0.00;;;19.00;99.90;;;;;;5076388;28;20487;-80
2022/10/22 09:13:57;;;;;;;0.15;0.00;;;19.10;99.90;;;;;;5093491;28;20044;-80
2022/10/22 09:16:35;;;;;;;0.00;0.00;;;19.00;99.90;;;;;;5093221;28;20499;-80
2022/10/22 09:19:30;;;;;;;0.05;0.00;;;18.90;99.90;;;;;;5076967;28;20043;-80
2022/10/22 09:22:21;;;;;;;;;;;18.50;99.90;;;;;;5093941;28;20051;-80
2022/10/22 09:24:51;;;;;;;1.20;0.50;;;18.40;99.90;;;;;;5077061;28;19920;-80
2022/10/22 09:27:22;;;;;;;0.05;0.05;;;18.10;99.90;;;;;;5093240;28;20044;-80
2022/10/22 09:29:48;;;;;;;0.05;0.05;;;17.80;99.90;;;;;;5075398;28;20479;-80
2022/10/22 09:32:15;;;;;;;0.20;0.20;;;17.40;99.90;;;;;;5092873;28;20104;-80
2022/10/22 09:34:43;;;;;;;0.00;0.00;;;17.30;99.90;;;;;;5076062;28;20138;-80
2022/10/22 09:37:09;;;;;;;0.00;0.00;;;17.20;99.90;;;;;;5076199;28;20491;-80
2022/10/22 09:39:42;;;;;;;0.00;0.00;;;17.10;99.90;;;;;;5076166;28;20048;-80
2022/10/22 09:42:10;;;;;;;0.32;0.25;;;17.00;99.90;;;;;;5076175;28;20369;-80
2022/10/22 09:44:36;;;;;;;0.00;0.00;;;16.80;99.90;;;;;;5076173;28;20135;-80
2022/10/22 09:47:07;;;;;;;0.00;0.00;;;16.80;99.90;;;;;;5092698;28;20062;-81
2022/10/22 09:49:35;;;;;;;0.00;0.00;;;16.70;99.90;;;;;;5105071;28;20444;-81
2022/10/22 09:52:01;;;;;;;0.00;0.00;;;16.50;99.90;;;;;;5096257;28;20387;-81
2022/10/22 09:54:30;;;;;;;0.00;0.00;;;16.50;99.90;;;;;;5096307;28;20055;-80
2022/10/22 09:57:05;;;;;;;0.00;0.00;;;16.50;99.90;;;;;;5096210;28;20146;-80
2022/10/22 09:59:37;;;;;;;0.00;0.00;;;16.50;99.90;;;;;;5113099;28;20051;-81
2022/10/22 10:02:13;;;;;;;1.45;0.38;;;16.40;99.90;;;;;;5096220;28;20475;-80
2022/10/22 10:05:00;;;;;;;0.10;0.10;;;16.40;99.90;;;;;;5095911;28;20056;-81
2022/10/22 10:07:30;;;;;;;0.00;0.00;;;16.40;99.90;;;;;;5113129;28;20055;-81
2022/10/22 10:09:56;;;;;;;0.00;0.00;;;16.40;99.90;;;;;;5112993;28;20043;-81
2022/10/22 10:12:38;;;;;;;0.05;0.00;;;16.30;99.90;;;;;;5095453;28;20463;-82
2022/10/22 10:15:45;;;;;;;0.20;0.15;;;16.30;99.90;;;;;;5096073;28;20054;-80
2022/10/22 10:18:23;;;;;;;0.17;0.17;;;16.20;99.90;;;;;;5054766;28;20116;-81
2022/10/22 10:20:57;;;;;;;0.00;0.00;;;16.20;99.90;;;;;;5054202;28;20136;-81
2022/10/22 10:23:35;;;;;;;0.00;0.00;;;16.20;99.90;;;;;;5054713;28;20041;-82
2022/10/22 10:26:32;;;;;;;0.00;0.00;;;16.20;99.90;;;;;;5054871;28;20059;-81
2022/10/22 10:29:11;;;;;;;0.00;0.00;;;16.20;99.90;;;;;;5051799;28;20400;-81
2022/10/22 10:32:11;;;;;;;0.30;0.00;;;16.10;99.90;;;;;;5054875;28;20500;-80
2022/10/22 10:34:44;;;;;;;0.00;0.00;;;16.20;99.90;;;;;;5037558;28;20167;-81
2022/10/22 10:37:29;;;;;;;0.00;0.00;;;16.20;99.90;;;;;;5052016;28;20044;-81
2022/10/22 10:40:19;;;;;;;0.00;0.00;;;16.20;99.90;;;;;;5037812;28;20053;-81
2022/10/22 10:43:01;;;;;;;0.08;0.08;;;16.20;99.90;;;;;;5058522;28;20052;-81
2022/10/22 10:45:47;;;;;;;0.00;0.00;;;16.20;99.90;;;;;;5042235;28;20384;-81
2022/10/22 10:48:28;;;;;;;0.00;0.00;;;16.30;99.90;;;;;;5058831;28;20413;-81
2022/10/22 10:51:08;;;;;;;0.00;0.00;;;16.30;99.90;;;;;;5054346;28;20072;-82
2022/10/22 10:53:40;;;;;;;0.85;0.08;;;16.30;99.90;;;;;;5063989;28;20416;-81
2022/10/22 10:56:23;;;;;;;0.00;0.00;;;16.30;99.90;;;;;;5096056;28;20052;-81
2022/10/22 10:59:11;;;;;;;0.30;0.30;;;16.30;99.90;;;;;;5079347;28;20051;-81
2022/10/22 11:01:40;;;;;;;0.00;0.00;;;16.20;99.90;;;;;;5095958;28;20055;-82
2022/10/22 11:04:28;;;;;;;0.60;0.00;;;16.10;99.90;;;;;;5078571;28;20056;-82
2022/10/22 11:06:59;;;;;;;0.10;0.10;;;16.10;99.90;;;;;;5095612;28;20522;-82
2022/10/22 11:09:29;;;;;;;0.00;0.00;;;16.10;99.90;;;;;;5083032;28;20082;-82
2022/10/22 11:12:01;;;;;;;0.50;0.22;;;16.00;99.90;;;;;;5078380;28;20083;-81
2022/10/22 11:14:43;;;;;;;0.00;0.00;;;16.10;99.90;;;;;;5095345;28;20048;-81
2022/10/22 11:17:13;;;;;;;0.32;0.32;;;16.00;99.90;;;;;;5095382;28;20040;-81
2022/10/22 11:19:55;;;;;;;0.10;0.10;;;16.00;99.90;;;;;;5078941;28;20131;-81
2022/10/22 11:22:29;;;;;;;0.00;0.00;;;16.00;99.90;;;;;;5095286;28;20079;-81
2022/10/22 11:25:01;;;;;;;0.00;0.00;;;16.00;99.90;;;;;;5078669;28;20384;-81
2022/10/22 11:27:36;;;;;;;0.00;0.00;;;16.00;99.90;;;;;;5095815;28;20036;-81
2022/10/22 11:30:07;;;;;;;0.00;0.00;;;16.10;99.90;;;;;;5095418;28;20392;-81
2022/10/22 11:32:34;;;;;;;0.00;0.00;;;16.10;99.90;;;;;;5095328;28;20391;-81
2022/10/22 11:35:03;;;;;;;0.55;0.20;;;16.20;99.90;;;;;;5095078;28;20391;-81
2022/10/22 11:37:33;;;;;;;0.00;0.00;;;16.20;99.90;;;;;;5078515;28;20369;-81
2022/10/22 11:40:37;;;;;;;0.00;0.00;;;16.10;99.90;;;;;;5095541;28;20044;-81
2022/10/22 11:43:05;;;;;;;0.00;0.00;;;16.10;99.90;;;;;;5095373;28;20120;-81
2022/10/22 11:45:36;;;;;;;0.00;0.00;;;16.10;99.90;;;;;;5078489;28;20081;-81
2022/10/22 11:48:18;;;;;;;4.10;0.40;;;16.10;99.90;;;;;;5078266;28;20515;-81
2022/10/22 11:50:59;;;;;;;0.10;0.10;;;16.10;99.90;;;;;;5095251;28;20049;-81
2022/10/22 11:53:29;;;;;;;0.70;0.45;;;16.20;99.90;;;;;;5094179;28;20555;-81
2022/10/22 11:55:58;;;;;;;0.00;0.00;;;16.30;99.90;;;;;;5078265;28;20040;-81
2022/10/22 11:58:27;;;;;;;0.05;0.00;;;16.30;99.90;;;;;;5094884;28;20138;-81
2022/10/22 12:00:55;;;;;;;0.10;0.10;;;16.30;99.90;;;;;;5078220;28;20047;-81
2022/10/22 12:03:23;;;;;;;0.00;0.00;;;16.30;99.90;;;;;;5094972;28;20079;-81
2022/10/22 12:06:04;;;;;;;0.30;0.30;;;16.30;99.90;;;;;;5094395;28;20048;-81
2022/10/22 12:08:31;;;;;;;0.90;0.35;;;16.20;99.90;;;;;;5078038;28;20054;-81
2022/10/22 12:11:12;;;;;;;0.00;0.00;;;16.30;99.90;;;;;;5094560;28;20048;-81
2022/10/22 12:14:16;;;;;;;0.85;0.40;;;16.50;99.90;;;;;;5077580;28;20044;-81
2022/10/22 12:16:51;;;;;;;0.00;0.00;;;16.80;99.90;;;;;;5077797;28;20051;-81
2022/10/22 12:19:30;;;;;;;0.00;0.00;;;17.00;99.90;;;;;;5094490;28;20098;-81
2022/10/22 12:22:05;;;;;;;0.00;0.00;;;17.10;99.90;;;;;;5078201;28;20032;-82
2022/10/22 12:24:36;;;;;;;0.00;0.00;;;17.10;99.90;;;;;;5078017;28;20131;-81
2022/10/22 12:27:02;;;;;;;0.00;0.00;;;17.20;99.90;;;;;;5094563;28;20044;-82
2022/10/22 12:29:31;;;;;;;3.10;0.47;;;17.20;99.90;;;;;;5094487;28;20040;-81
2022/10/22 12:32:02;;;;;;;1.27;0.40;;;17.10;99.90;;;;;;5094076;28;20040;-81
2022/10/22 12:34:28;;;;;;;0.10;0.10;;;17.10;99.90;;;;;;5093843;28;20506;-81
2022/10/22 12:36:54;;;;;;;0.00;0.00;;;17.00;99.90;;;;;;5094593;28;20048;-81
2022/10/22 12:39:24;;;;;;;0.13;0.10;;;17.00;99.90;;;;;;5093942;28;20048;-81
2022/10/22 12:41:52;;;;;;;0.00;0.00;;;16.90;99.90;;;;;;5077307;28;20051;-81
2022/10/22 12:44:18;;;;;;;0.00;0.00;;;16.80;99.90;;;;;;5094052;28;20505;-81
2022/10/22 12:46:47;;;;;;;8.00;0.75;;;16.70;99.90;;;;;;5076438;28;20147;-81
2022/10/22 12:49:30;;;;;;;0.70;0.43;;;16.70;99.90;;;;;;5076910;28;20090;-81
2022/10/22 12:52:01;;;;;;;0.00;0.00;;;16.60;99.90;;;;;;5076520;28;20084;-81
2022/10/22 12:54:30;;;;;;;0.00;0.00;;;16.60;99.90;;;;;;5093877;28;20075;-81
2022/10/22 12:56:57;;;;;;;8.10;0.73;;;16.60;99.90;;;;;;5076909;28;20044;-81
2022/10/22 12:59:27;;;;;;;0.10;0.10;;;16.60;99.90;;;;;;5093987;28;20035;-80
2022/10/22 13:01:55;;;;;;;0.10;0.00;;;16.60;99.90;;;;;;5077359;28;20044;-80
2022/10/22 13:04:31;;;;;;;0.00;0.00;;;16.60;99.90;;;;;;5076687;28;20126;-80
2022/10/22 13:07:05;;;;;;;0.10;0.00;;;16.70;99.90;;;;;;5076654;28;20044;-80